Portada
METAR-TAF:

METAR-TAF

Aeropuertos :

Aeropuerto de Melilla

Melilla, España

latitud: 35-17N, longitud: 002-57W, altitud: 47 m

Observación

El informe se hizo hace 15 minutos, a las 19:30 UTC
Viento 2 kt con dirección variable
Temperatura 22°C
Humedad 60%
Presión 1011 hPa
Visibilidad 10 km o más

METAR: GEML 191930Z AUTO VRB02KT 9999 NCD 22/14 Q1011

Hora: 21:45 (19:45 UTC)

Pronóstico

El informe se hizo hace 5 horas y 45 minutos, a las 14:00 UTC
Pronóstico válido del 19 a las 15 UTC al 20 a las 15 UTC
Viento 8 kt del oeste
Visibilidad 10 km o más
Escasas nubes a una altura de 2500 ft
Probabilidad 40% :
Temporalmente
del 20 a las 08 UTC al 20 a las 15 UTC
Viento 15 kt del oeste con ráfagas de 25 kt

TAF: GEML 191400Z 1915/2015 27008KT 9999 FEW025 TX25/1915Z TN17/2006Z PROB40 TEMPO 2008/2015 28015G25KT

Observaciones y pronósticos meteorológicos de más de 4000 aeropuertos (mensajes METAR y TAF).

Los puntos amarillos y rojos representan las estaciones disponibles.

Ponga el ratón en el punto deseado para ver el nombre de la estación.

Haga clic para ver las observaciones y los pronósticos meteorológicos.

Para cambiar el mapa : haga clic en los botones verdes con una cruz de color negro para hacer un zoom, en el botón verde con un guión para alejar o en las flechas verdes para mapas adyacentes.


METAR-TAF: